Time;durP1;ratioP1;P1;durP2;ratioP2;P2;SDS_P1;SDS_P2;PMS_P1;PMS_P2;Temp;Humidity;BMP_temperature;BMP_pressure;BME280_temperature;BME280_humidity;BME280_pressure;Samples;Min_cycle;Max_cycle;Signal;HPM_P1;HPM_P2
2021/01/01 00:01:45;;;;;;;2.63;2.23;;;6.60;99.90;;;;;;5075159;28;20210;-82
2021/01/01 00:04:12;;;;;;;5.40;2.93;;;6.60;99.90;;;;;;5074680;28;20222;-83
2021/01/01 00:06:39;;;;;;;3.10;2.40;;;6.50;99.90;;;;;;5075273;28;20681;-84
2021/01/01 00:09:07;;;;;;;3.50;2.70;;;6.40;99.90;;;;;;5075233;28;20206;-86
2021/01/01 00:11:33;;;;;;;3.10;2.50;;;6.30;99.90;;;;;;5074715;28;20206;-85
2021/01/01 00:14:00;;;;;;;2.93;2.10;;;6.30;99.90;;;;;;5074814;28;20672;-85
2021/01/01 00:16:27;;;;;;;2.87;2.53;;;6.30;99.90;;;;;;5073978;28;20214;-82
2021/01/01 00:18:54;;;;;;;3.23;2.13;;;6.30;99.90;;;;;;5073663;28;20692;-82
2021/01/01 00:21:20;;;;;;;2.60;2.40;;;6.40;99.90;;;;;;5073670;28;20255;-77
2021/01/01 00:23:47;;;;;;;6.23;2.53;;;6.30;99.90;;;;;;5074295;28;20250;-80
2021/01/01 00:26:16;;;;;;;4.60;2.30;;;6.30;99.90;;;;;;5073796;28;20210;-80
2021/01/01 00:28:43;;;;;;;3.40;2.37;;;6.30;99.90;;;;;;5074017;28;20206;-80
2021/01/01 00:31:14;;;;;;;3.37;2.20;;;6.30;99.90;;;;;;5074080;28;20236;-80
2021/01/01 00:33:41;;;;;;;3.13;2.70;;;6.20;99.90;;;;;;5073855;28;20214;-71
2021/01/01 00:36:09;;;;;;;4.07;2.53;;;6.30;99.90;;;;;;5074310;28;20233;-80
2021/01/01 00:38:35;;;;;;;3.90;2.33;;;6.20;99.90;;;;;;5073101;28;20673;-79
2021/01/01 00:41:02;;;;;;;3.13;2.77;;;6.10;99.90;;;;;;5073900;28;20269;-81
2021/01/01 00:43:28;;;;;;;3.33;2.33;;;6.10;99.90;;;;;;5073274;28;20206;-82
2021/01/01 00:45:55;;;;;;;6.63;2.50;;;6.10;99.90;;;;;;5073207;28;20237;-80
2021/01/01 00:48:21;;;;;;;4.10;2.57;;;6.10;99.90;;;;;;5073209;28;20218;-81
2021/01/01 00:50:48;;;;;;;2.00;1.73;;;6.20;99.90;;;;;;5073574;28;20224;-81
2021/01/01 00:53:15;;;;;;;2.80;2.13;;;6.10;99.90;;;;;;5073253;28;20312;-81
2021/01/01 00:55:42;;;;;;;3.10;2.00;;;6.10;99.90;;;;;;5073336;28;20245;-79
2021/01/01 00:58:08;;;;;;;2.40;2.20;;;6.10;99.90;;;;;;5073852;28;20256;-82
2021/01/01 01:00:34;;;;;;;2.93;2.30;;;6.00;99.90;;;;;;5072788;28;20202;-82
2021/01/01 01:03:01;;;;;;;3.00;2.20;;;5.90;99.90;;;;;;5073199;28;20206;-81
2021/01/01 01:05:27;;;;;;;5.33;3.17;;;5.80;99.90;;;;;;5072969;28;20230;-82
2021/01/01 01:07:55;;;;;;;3.47;2.97;;;5.80;99.90;;;;;;5072940;28;20202;-82
2021/01/01 01:10:21;;;;;;;3.00;2.53;;;5.70;99.90;;;;;;5073064;28;20202;-80
2021/01/01 01:12:47;;;;;;;5.93;2.77;;;5.60;99.90;;;;;;5072795;28;20739;-82
2021/01/01 01:15:14;;;;;;;3.93;3.30;;;5.50;99.90;;;;;;5072561;28;20685;-80
2021/01/01 01:17:41;;;;;;;3.53;2.73;;;5.50;99.90;;;;;;5073092;28;20206;-77
2021/01/01 01:20:09;;;;;;;3.47;2.30;;;5.40;99.90;;;;;;5073275;28;20735;-82
2021/01/01 01:22:36;;;;;;;3.90;2.57;;;5.50;99.90;;;;;;5072894;28;20217;-78
2021/01/01 01:25:04;;;;;;;3.37;2.57;;;5.50;99.90;;;;;;5072814;28;20230;-79
2021/01/01 01:27:30;;;;;;;2.50;2.00;;;5.50;99.90;;;;;;5072399;28;20213;-78
2021/01/01 01:29:57;;;;;;;2.67;1.93;;;5.40;99.90;;;;;;5072404;28;20693;-78
2021/01/01 01:32:23;;;;;;;3.10;2.40;;;5.40;99.90;;;;;;5072272;28;20214;-78
2021/01/01 01:34:50;;;;;;;4.07;2.43;;;5.40;99.90;;;;;;5072828;28;20206;-78
2021/01/01 01:37:16;;;;;;;2.30;1.87;;;5.40;99.90;;;;;;5072327;28;20210;-79
2021/01/01 01:39:42;;;;;;;3.53;2.47;;;5.50;99.90;;;;;;5072541;28;20206;-78
2021/01/01 01:42:10;;;;;;;2.37;1.73;;;5.40;99.90;;;;;;5072762;28;20248;-79
2021/01/01 01:44:36;;;;;;;3.20;2.43;;;5.30;99.90;;;;;;5072092;28;20713;-76
2021/01/01 01:47:03;;;;;;;5.67;2.10;;;5.20;99.90;;;;;;5072320;28;20208;-78
2021/01/01 01:49:30;;;;;;;3.10;2.60;;;5.00;99.90;;;;;;5072352;28;20209;-78
2021/01/01 01:51:57;;;;;;;5.67;2.80;;;4.90;99.90;;;;;;5072279;28;20206;-84
2021/01/01 01:54:23;;;;;;;6.57;4.20;;;4.80;99.90;;;;;;5072320;28;20697;-84
2021/01/01 01:56:52;;;;;;;5.00;3.53;;;4.70;99.90;;;;;;5072932;28;20214;-83
2021/01/01 01:59:21;;;;;;;3.60;2.83;;;4.60;99.90;;;;;;5072226;28;20259;-85
2021/01/01 02:01:48;;;;;;;4.63;3.00;;;4.60;99.90;;;;;;5073230;28;20261;-85
2021/01/01 02:04:14;;;;;;;3.20;2.47;;;4.60;99.90;;;;;;5072308;28;20213;-84
2021/01/01 02:06:43;;;;;;;7.57;2.63;;;4.50;99.90;;;;;;5072444;28;20677;-74
2021/01/01 02:09:12;;;;;;;3.97;3.50;;;4.60;99.90;;;;;;5072539;28;20336;-82
2021/01/01 02:11:40;;;;;;;4.47;3.00;;;4.60;99.90;;;;;;5072566;28;20219;-82
2021/01/01 02:14:06;;;;;;;3.70;2.67;;;4.80;99.90;;;;;;5072645;28;20234;-80
2021/01/01 02:16:35;;;;;;;4.40;3.00;;;4.90;99.90;;;;;;5071545;28;20218;-80
2021/01/01 02:19:02;;;;;;;4.23;2.97;;;4.90;99.90;;;;;;5072407;28;20219;-84
2021/01/01 02:21:28;;;;;;;3.27;2.77;;;5.00;99.90;;;;;;5071777;28;20657;-82
2021/01/01 02:23:56;;;;;;;3.00;2.50;;;5.00;99.90;;;;;;5071974;28;20558;-81
2021/01/01 02:26:22;;;;;;;9.93;3.40;;;4.80;99.90;;;;;;5071489;28;20267;-82
2021/01/01 02:28:48;;;;;;;4.57;2.80;;;4.80;99.90;;;;;;5072163;28;20251;-83
2021/01/01 02:31:15;;;;;;;3.47;2.80;;;4.80;99.90;;;;;;5071717;28;20210;-83
2021/01/01 02:33:41;;;;;;;3.97;3.27;;;4.80;99.90;;;;;;5071878;28;20281;-82
2021/01/01 02:36:10;;;;;;;3.53;2.83;;;4.90;99.90;;;;;;5072312;28;20210;-82
2021/01/01 02:38:38;;;;;;;8.00;3.57;;;5.00;99.90;;;;;;5071345;28;20238;-82
2021/01/01 02:41:06;;;;;;;4.23;3.80;;;5.00;99.90;;;;;;5071819;28;20259;-80
2021/01/01 02:43:32;;;;;;;18.57;10.47;;;5.00;99.90;;;;;;5071288;28;20213;-81
2021/01/01 02:45:59;;;;;;;12.03;9.50;;;5.10;99.90;;;;;;5071692;28;20230;-79
2021/01/01 02:48:25;;;;;;;38.87;26.33;;;5.10;99.90;;;;;;5070834;28;20645;-78
2021/01/01 02:50:52;;;;;;;30.57;21.10;;;5.10;99.90;;;;;;5071293;28;20206;-77
2021/01/01 02:53:19;;;;;;;40.23;25.80;;;5.00;99.90;;;;;;5071153;28;20691;-82
2021/01/01 02:55:45;;;;;;;28.03;20.07;;;5.00;99.90;;;;;;5071633;28;20232;-83
2021/01/01 02:58:13;;;;;;;20.80;15.17;;;4.90;99.90;;;;;;5071264;28;20233;-80
2021/01/01 03:00:41;;;;;;;18.73;14.57;;;4.70;99.90;;;;;;5072184;28;20263;-80
2021/01/01 03:03:08;;;;;;;19.90;13.07;;;4.70;99.90;;;;;;5071788;28;20202;-81
2021/01/01 03:05:35;;;;;;;10.30;7.57;;;4.50;99.90;;;;;;5070583;28;20304;-80
2021/01/01 03:08:01;;;;;;;6.40;4.93;;;4.60;99.90;;;;;;5071317;28;20210;-80
2021/01/01 03:10:28;;;;;;;7.37;4.50;;;4.70;99.90;;;;;;5070917;28;20213;-80
2021/01/01 03:12:54;;;;;;;4.80;3.83;;;4.60;99.90;;;;;;5070782;28;21712;-80
2021/01/01 03:15:21;;;;;;;7.57;4.20;;;4.60;99.90;;;;;;5070755;28;20681;-81
2021/01/01 03:17:48;;;;;;;3.53;3.23;;;4.50;99.90;;;;;;5070802;28;20689;-80
2021/01/01 03:20:15;;;;;;;7.03;4.67;;;4.50;99.90;;;;;;5070757;28;20209;-80
2021/01/01 03:22:41;;;;;;;4.30;3.20;;;4.70;99.90;;;;;;5069843;28;20214;-72
2021/01/01 03:25:09;;;;;;;3.30;2.50;;;4.80;99.90;;;;;;5065482;28;20282;-78
2021/01/01 03:27:35;;;;;;;2.67;2.40;;;4.90;99.90;;;;;;5070501;28;20617;-78
2021/01/01 03:30:03;;;;;;;4.20;3.50;;;4.80;99.90;;;;;;5070967;28;20210;-79
2021/01/01 03:32:30;;;;;;;6.27;2.50;;;4.80;99.90;;;;;;5069997;28;20198;-78
2021/01/01 03:34:58;;;;;;;5.43;3.13;;;4.80;99.90;;;;;;5070560;28;20236;-77
2021/01/01 03:37:25;;;;;;;3.17;2.60;;;4.70;99.90;;;;;;5070298;28;20210;-79
2021/01/01 03:39:54;;;;;;;8.53;2.37;;;4.60;99.90;;;;;;5070987;28;20255;-78
2021/01/01 03:42:20;;;;;;;3.50;2.60;;;4.60;99.90;;;;;;5070109;28;20201;-80
2021/01/01 03:44:47;;;;;;;3.63;2.67;;;4.50;99.90;;;;;;5070673;28;20226;-79
2021/01/01 03:47:13;;;;;;;5.07;3.30;;;4.40;99.90;;;;;;5070008;28;20263;-79
2021/01/01 03:49:41;;;;;;;3.60;3.13;;;4.30;99.90;;;;;;5070911;28;20544;-79
2021/01/01 03:52:07;;;;;;;2.67;2.47;;;4.20;99.90;;;;;;5071172;28;20202;-79
2021/01/01 03:54:33;;;;;;;2.53;2.33;;;4.20;99.90;;;;;;5070086;28;20210;-80
2021/01/01 03:57:00;;;;;;;3.40;2.80;;;4.20;99.90;;;;;;5070316;28;20206;-78
2021/01/01 03:59:26;;;;;;;4.83;2.43;;;4.20;99.90;;;;;;5070098;28;20203;-80
2021/01/01 04:01:53;;;;;;;2.63;2.27;;;4.10;99.90;;;;;;5070704;28;20606;-79
2021/01/01 04:04:19;;;;;;;2.60;2.40;;;4.00;99.90;;;;;;5069976;28;20665;-80
2021/01/01 04:06:46;;;;;;;2.83;2.00;;;4.00;99.90;;;;;;5070744;28;20206;-80
2021/01/01 04:09:13;;;;;;;7.07;2.17;;;4.10;99.90;;;;;;5069906;28;20252;-73
2021/01/01 04:11:39;;;;;;;3.27;2.20;;;4.20;99.90;;;;;;5056990;28;20206;-80
2021/01/01 04:14:07;;;;;;;3.60;2.80;;;4.10;99.90;;;;;;5070716;28;20212;-80
2021/01/01 04:16:33;;;;;;;2.77;2.53;;;4.10;99.90;;;;;;5069801;28;20275;-81
2021/01/01 04:19:00;;;;;;;5.67;2.97;;;3.90;99.90;;;;;;5070886;28;20209;-80
2021/01/01 04:21:26;;;;;;;2.50;2.30;;;3.90;99.90;;;;;;5069896;28;20248;-80
2021/01/01 04:23:53;;;;;;;2.30;2.03;;;3.80;99.90;;;;;;5070302;28;20210;-81
2021/01/01 04:26:23;;;;;;;3.03;2.77;;;3.70;99.90;;;;;;5070763;28;20261;-84
2021/01/01 04:28:50;;;;;;;3.17;2.67;;;3.70;99.90;;;;;;5070980;28;20210;-84
2021/01/01 04:31:17;;;;;;;3.50;3.20;;;3.60;99.90;;;;;;5070886;28;20247;-85
2021/01/01 04:33:44;;;;;;;4.93;2.97;;;3.60;99.90;;;;;;5070569;28;20202;-74
2021/01/01 04:36:10;;;;;;;4.17;3.77;;;3.50;99.90;;;;;;5070666;28;20237;-76
2021/01/01 04:38:37;;;;;;;3.10;2.80;;;3.40;99.90;;;;;;5069825;28;20281;-77
2021/01/01 04:41:04;;;;;;;2.57;2.37;;;3.40;99.90;;;;;;5069991;28;20238;-77
2021/01/01 04:43:31;;;;;;;4.07;3.23;;;3.40;99.90;;;;;;5069692;28;20276;-76
2021/01/01 04:45:58;;;;;;;3.73;3.17;;;3.30;99.90;;;;;;5073272;28;20226;-77
2021/01/01 04:48:24;;;;;;;4.50;3.50;;;3.30;99.90;;;;;;5073542;28;20218;-75
2021/01/01 04:50:51;;;;;;;6.57;3.40;;;3.20;99.90;;;;;;5073646;28;20272;-76
2021/01/01 04:53:22;;;;;;;4.47;4.07;;;3.30;99.90;;;;;;5072976;28;20213;-77
2021/01/01 04:55:49;;;;;;;4.43;3.90;;;3.30;99.90;;;;;;5073219;28;20259;-77
2021/01/01 04:58:17;;;;;;;5.67;4.23;;;3.10;99.90;;;;;;5073010;28;20575;-77
2021/01/01 05:00:43;;;;;;;6.53;3.80;;;3.00;99.90;;;;;;5073390;28;20209;-76
2021/01/01 05:03:10;;;;;;;5.00;4.00;;;3.00;99.90;;;;;;5074074;28;20206;-82
2021/01/01 05:05:36;;;;;;;5.47;4.10;;;3.00;99.90;;;;;;5073259;28;20262;-79
2021/01/01 05:08:03;;;;;;;6.17;4.33;;;3.10;99.90;;;;;;5073234;28;20613;-79
2021/01/01 05:10:34;;;;;;;5.23;4.37;;;3.10;99.90;;;;;;5072943;28;20202;-81
2021/01/01 05:13:10;;;;;;;4.80;3.77;;;3.10;99.90;;;;;;5073428;28;20577;-80
2021/01/01 05:15:38;;;;;;;5.43;4.87;;;3.30;99.90;;;;;;5073327;28;20674;-81
2021/01/01 05:18:17;;;;;;;5.70;3.97;;;3.40;99.90;;;;;;5073436;28;20676;-80
2021/01/01 05:20:43;;;;;;;6.13;4.40;;;3.60;99.90;;;;;;5073354;28;20248;-78
2021/01/01 05:23:22;;;;;;;7.07;4.47;;;3.80;99.90;;;;;;5073464;28;20202;-81
2021/01/01 05:26:07;;;;;;;5.47;4.43;;;4.00;99.90;;;;;;5073306;28;20229;-82
2021/01/01 05:28:53;;;;;;;4.93;4.37;;;4.10;99.90;;;;;;5072993;28;20219;-81
2021/01/01 05:31:21;;;;;;;5.00;4.50;;;4.10;99.90;;;;;;5072595;28;20702;-80
2021/01/01 05:33:56;;;;;;;7.07;5.10;;;4.10;99.90;;;;;;5072747;28;20633;-80
2021/01/01 05:36:31;;;;;;;6.63;5.30;;;4.10;99.90;;;;;;5072201;28;20218;-79
2021/01/01 05:38:58;;;;;;;7.00;5.00;;;4.10;99.90;;;;;;5068590;28;20201;-79
2021/01/01 05:41:33;;;;;;;5.30;4.50;;;4.10;99.90;;;;;;5072237;28;20245;-79
2021/01/01 05:44:25;;;;;;;6.23;4.77;;;4.20;99.90;;;;;;5071980;28;20213;-85
2021/01/01 05:47:00;;;;;;;8.50;7.60;;;4.20;99.90;;;;;;5073246;28;20674;-85
2021/01/01 05:49:29;;;;;;;19.97;15.73;;;4.20;99.90;;;;;;5072349;28;20205;-79
2021/01/01 05:52:10;;;;;;;32.57;27.03;;;4.20;99.90;;;;;;5072086;28;20214;-78
2021/01/01 05:54:38;;;;;;;18.53;15.60;;;4.10;99.90;;;;;;5072066;28;20202;-79
2021/01/01 05:57:05;;;;;;;8.57;7.57;;;4.10;99.90;;;;;;5070879;28;20206;-78
2021/01/01 05:59:35;;;;;;;7.70;6.97;;;4.10;99.90;;;;;;5071795;28;20210;-79
2021/01/01 06:02:04;;;;;;;6.60;5.20;;;4.00;99.90;;;;;;5071825;28;20214;-80
2021/01/01 06:04:31;;;;;;;7.53;5.33;;;3.90;99.90;;;;;;5061308;28;20209;-77
2021/01/01 06:07:02;;;;;;;5.17;4.77;;;3.90;99.90;;;;;;5071115;28;20224;-79
2021/01/01 06:09:32;;;;;;;4.70;4.17;;;3.80;99.90;;;;;;5072183;28;20201;-80
2021/01/01 06:12:04;;;;;;;4.37;3.73;;;3.80;99.90;;;;;;5070855;28;20233;-78
2021/01/01 06:14:40;;;;;;;6.63;3.90;;;3.80;99.90;;;;;;5071722;28;20206;-79
2021/01/01 06:17:23;;;;;;;8.57;7.77;;;3.60;99.90;;;;;;5071518;28;20677;-79
2021/01/01 06:19:54;;;;;;;4.47;3.40;;;3.50;99.90;;;;;;5063168;28;20575;-78
2021/01/01 06:22:22;;;;;;;7.00;5.60;;;3.60;99.90;;;;;;5071901;28;20202;-83
2021/01/01 06:24:51;;;;;;;5.30;4.57;;;3.60;99.90;;;;;;5071533;28;20226;-84
2021/01/01 06:27:20;;;;;;;4.67;4.00;;;3.70;99.90;;;;;;5072306;28;20232;-83
2021/01/01 06:29:49;;;;;;;5.87;3.93;;;3.70;99.90;;;;;;5071073;28;20281;-83
2021/01/01 06:32:20;;;;;;;5.10;4.53;;;3.70;99.90;;;;;;5072387;28;20252;-83
2021/01/01 06:34:48;;;;;;;7.57;5.83;;;3.80;99.90;;;;;;5072180;28;20282;-77
2021/01/01 06:37:40;;;;;;;8.13;5.60;;;3.90;99.90;;;;;;5071550;28;20206;-84
2021/01/01 06:40:28;;;;;;;21.27;19.17;;;3.90;99.90;;;;;;5070981;28;20213;-80
2021/01/01 06:42:57;;;;;;;32.03;28.60;;;3.90;99.90;;;;;;5071302;28;20251;-81
2021/01/01 06:45:35;;;;;;;22.47;19.90;;;3.90;99.90;;;;;;5069876;28;20237;-82
2021/01/01 06:48:03;;;;;;;11.37;8.90;;;4.00;99.90;;;;;;5062652;28;20555;-83
2021/01/01 06:50:32;;;;;;;10.07;7.43;;;3.90;99.90;;;;;;5071842;28;20202;-81
2021/01/01 06:53:03;;;;;;;6.17;5.20;;;3.90;99.90;;;;;;5071453;28;20236;-80
2021/01/01 06:55:34;;;;;;;6.67;4.93;;;3.70;99.90;;;;;;5071160;28;20224;-80
2021/01/01 06:58:01;;;;;;;6.00;4.77;;;3.40;99.90;;;;;;5070967;28;20213;-80
2021/01/01 07:01:03;;;;;;;5.10;4.50;;;3.40;99.90;;;;;;5071132;28;20206;-82
2021/01/01 07:03:37;;;;;;;5.10;4.60;;;3.40;99.90;;;;;;5061070;28;20203;-83
2021/01/01 07:06:34;;;;;;;6.60;4.50;;;3.40;99.90;;;;;;5070725;28;20272;-83
2021/01/01 07:09:02;;;;;;;5.37;4.87;;;3.30;99.90;;;;;;5070449;28;20210;-82
2021/01/01 07:11:33;;;;;;;6.83;5.23;;;3.20;99.90;;;;;;5071124;28;20279;-83
2021/01/01 07:14:05;;;;;;;5.10;4.60;;;3.30;99.90;;;;;;5070410;28;20673;-82
2021/01/01 07:16:34;;;;;;;7.27;5.30;;;3.30;99.90;;;;;;5071027;28;20222;-82
2021/01/01 07:19:01;;;;;;;6.47;5.43;;;3.50;99.90;;;;;;5070540;28;20280;-81
2021/01/01 07:21:28;;;;;;;5.50;4.27;;;3.70;99.90;;;;;;5062508;28;20233;-83
2021/01/01 07:23:55;;;;;;;5.57;4.90;;;3.90;99.90;;;;;;5070336;28;20245;-82
2021/01/01 07:26:26;;;;;;;8.37;5.77;;;3.90;99.90;;;;;;5070319;28;20230;-82
2021/01/01 07:28:54;;;;;;;7.03;5.10;;;4.00;99.90;;;;;;5070444;28;20213;-83
2021/01/01 07:31:20;;;;;;;6.50;5.47;;;3.80;99.90;;;;;;5070473;28;20213;-83
2021/01/01 07:33:47;;;;;;;5.60;5.07;;;3.40;99.90;;;;;;5070372;28;20198;-79
2021/01/01 07:36:14;;;;;;;5.93;5.33;;;3.20;99.90;;;;;;5070800;28;20210;-79
2021/01/01 07:38:42;;;;;;;5.50;4.83;;;3.20;99.90;;;;;;5070251;28;20206;-83
2021/01/01 07:41:10;;;;;;;7.93;5.50;;;3.10;99.90;;;;;;5065202;28;20689;-82
2021/01/01 07:43:38;;;;;;;7.50;5.40;;;3.00;99.90;;;;;;5070638;28;20207;-78
2021/01/01 07:46:05;;;;;;;6.93;5.40;;;3.00;99.90;;;;;;5069896;28;20234;-80
2021/01/01 07:48:32;;;;;;;7.23;6.53;;;3.10;99.90;;;;;;5070274;28;20673;-81
2021/01/01 07:51:00;;;;;;;10.43;5.83;;;3.00;99.90;;;;;;5069120;28;20205;-83
2021/01/01 07:53:26;;;;;;;7.37;5.27;;;3.00;99.90;;;;;;5071015;28;20214;-82
2021/01/01 07:55:58;;;;;;;8.43;7.50;;;3.00;99.90;;;;;;5070870;28;20202;-90
2021/01/01 07:58:27;;;;;;;7.83;5.80;;;3.10;99.90;;;;;;5071586;28;20245;-86
2021/01/01 08:00:58;;;;;;;10.60;6.30;;;3.50;99.90;;;;;;5070201;28;20213;-82
2021/01/01 08:03:25;;;;;;;8.77;7.37;;;3.70;99.90;;;;;;5068686;28;20241;-74
2021/01/01 08:05:53;;;;;;;10.07;8.00;;;3.60;99.90;;;;;;5061005;28;20265;-76
2021/01/01 08:08:20;;;;;;;11.67;8.70;;;3.50;99.90;;;;;;5065465;28;20210;-78
2021/01/01 08:10:48;;;;;;;11.67;9.73;;;3.30;99.90;;;;;;5067872;28;20677;-76
2021/01/01 08:13:15;;;;;;;10.33;8.73;;;3.30;99.90;;;;;;5062053;28;20232;-78
2021/01/01 08:15:43;;;;;;;7.80;7.00;;;3.30;99.90;;;;;;5065037;28;20721;-78
2021/01/01 08:18:11;;;;;;;13.10;6.60;;;3.30;99.90;;;;;;5069918;28;20365;-79
2021/01/01 08:20:38;;;;;;;8.67;7.27;;;3.30;99.90;;;;;;5072846;28;20206;-78
2021/01/01 08:23:09;;;;;;;9.13;6.67;;;3.30;99.90;;;;;;5073691;28;20206;-79
2021/01/01 08:25:36;;;;;;;6.70;5.90;;;3.30;99.90;;;;;;5073838;28;20598;-78
2021/01/01 08:28:05;;;;;;;9.33;6.87;;;3.40;99.90;;;;;;5073423;28;20233;-78
2021/01/01 08:30:31;;;;;;;6.63;5.93;;;3.70;99.90;;;;;;5074128;28;20316;-77
2021/01/01 08:33:00;;;;;;;6.73;6.00;;;4.00;99.90;;;;;;5073672;28;20206;-77
2021/01/01 08:35:27;;;;;;;8.47;7.07;;;4.20;99.90;;;;;;5073995;28;20202;-79
2021/01/01 08:37:53;;;;;;;10.87;8.60;;;4.20;99.90;;;;;;5073081;28;20202;-77
2021/01/01 08:40:22;;;;;;;9.47;8.13;;;4.40;99.90;;;;;;5073778;28;20207;-78
2021/01/01 08:42:54;;;;;;;9.47;7.40;;;4.80;99.90;;;;;;5073609;28;20210;-78
2021/01/01 08:45:21;;;;;;;8.77;6.37;;;5.60;99.90;;;;;;5073894;28;20231;-78
2021/01/01 08:47:49;;;;;;;6.80;6.10;;;5.10;99.90;;;;;;5073702;28;20202;-77
2021/01/01 08:50:24;;;;;;;7.03;5.57;;;5.90;99.90;;;;;;5073914;28;20207;-78
2021/01/01 08:53:00;;;;;;;9.73;6.40;;;5.50;99.90;;;;;;5073334;28;20206;-75
2021/01/01 08:55:27;;;;;;;8.30;7.13;;;5.10;99.90;;;;;;5073180;28;20206;-74
2021/01/01 08:58:09;;;;;;;7.70;6.90;;;4.60;99.90;;;;;;5064169;28;20210;-73
2021/01/01 09:00:38;;;;;;;8.97;7.80;;;4.20;99.90;;;;;;5063585;28;20252;-74
2021/01/01 09:03:05;;;;;;;12.43;9.03;;;4.00;99.90;;;;;;5073140;28;20241;-75
2021/01/01 09:05:33;;;;;;;14.73;10.17;;;4.00;99.90;;;;;;5072378;28;20279;-74
2021/01/01 09:08:11;;;;;;;18.17;14.07;;;4.20;99.90;;;;;;5066004;28;20202;-77
2021/01/01 09:10:39;;;;;;;9.97;8.20;;;4.20;99.90;;;;;;5073264;28;20225;-74
2021/01/01 09:13:15;;;;;;;10.43;6.23;;;4.10;99.90;;;;;;5070430;28;20804;-74
2021/01/01 09:15:42;;;;;;;13.20;8.20;;;4.10;99.90;;;;;;5068288;28;20561;-76
2021/01/01 09:18:09;;;;;;;25.73;10.33;;;3.80;99.90;;;;;;5070167;28;20230;-76
2021/01/01 09:20:40;;;;;;;58.93;11.80;;;3.70;99.90;;;;;;5072874;28;20206;-76
2021/01/01 09:23:08;;;;;;;15.97;10.17;;;3.80;99.90;;;;;;5069373;28;20682;-76
2021/01/01 09:25:35;;;;;;;13.13;8.57;;;3.70;99.90;;;;;;5070338;28;20616;-75
2021/01/01 09:28:02;;;;;;;16.40;7.70;;;3.80;99.90;;;;;;5070528;28;20214;-77
2021/01/01 09:30:30;;;;;;;16.10;9.63;;;3.90;99.90;;;;;;5064438;28;20214;-77
2021/01/01 09:32:58;;;;;;;31.17;11.23;;;3.80;99.90;;;;;;5068126;28;20203;-76
2021/01/01 09:35:25;;;;;;;73.37;16.20;;;3.80;99.90;;;;;;5070573;28;20214;-77
2021/01/01 09:37:55;;;;;;;19.30;12.87;;;3.90;99.90;;;;;;5072008;28;20683;-76
2021/01/01 09:40:22;;;;;;;32.23;12.10;;;4.20;99.90;;;;;;5069952;28;20689;-77
2021/01/01 09:42:49;;;;;;;31.87;11.23;;;4.20;99.90;;;;;;5067056;28;20206;-78
2021/01/01 09:45:16;;;;;;;20.50;10.57;;;4.10;99.90;;;;;;5071912;28;20616;-73
2021/01/01 09:47:43;;;;;;;37.07;12.13;;;3.90;99.90;;;;;;5072564;28;20626;-75
2021/01/01 09:50:11;;;;;;;42.57;9.50;;;3.70;99.90;;;;;;5068628;28;20584;-77
2021/01/01 09:52:38;;;;;;;10.50;7.67;;;3.60;99.90;;;;;;5065686;28;20289;-76
2021/01/01 09:55:08;;;;;;;20.43;8.23;;;4.20;99.90;;;;;;5072302;28;20210;-77
2021/01/01 09:57:35;;;;;;;32.23;8.70;;;4.30;99.90;;;;;;5068369;28;20209;-76
2021/01/01 10:00:02;;;;;;;36.73;9.13;;;4.20;99.90;;;;;;5071814;28;20213;-75
2021/01/01 10:02:28;;;;;;;21.43;9.73;;;4.30;99.90;;;;;;5072131;28;20571;-76
2021/01/01 10:04:55;;;;;;;19.27;7.10;;;4.20;99.90;;;;;;5071639;28;20206;-76
2021/01/01 10:07:21;;;;;;;14.43;7.00;;;4.20;99.90;;;;;;5072135;28;20202;-76
2021/01/01 10:09:47;;;;;;;20.17;7.37;;;4.20;99.90;;;;;;5071719;28;20688;-75
2021/01/01 10:12:18;;;;;;;16.87;7.43;;;4.20;99.90;;;;;;5066821;28;20214;-73
2021/01/01 10:14:45;;;;;;;21.10;6.77;;;3.90;99.90;;;;;;5065700;28;20255;-76
2021/01/01 10:17:11;;;;;;;14.40;6.57;;;3.80;99.90;;;;;;5071980;28;20222;-76
2021/01/01 10:19:41;;;;;;;18.27;7.43;;;3.70;99.90;;;;;;5071828;28;20252;-76
2021/01/01 10:22:07;;;;;;;13.10;6.60;;;3.90;99.90;;;;;;5071576;28;20700;-76
2021/01/01 10:24:34;;;;;;;9.60;6.57;;;3.90;99.90;;;;;;5067958;28;20252;-75
2021/01/01 10:27:00;;;;;;;8.90;6.60;;;4.10;99.90;;;;;;5065492;28;20230;-75
2021/01/01 10:29:28;;;;;;;10.27;6.60;;;4.30;99.90;;;;;;5069060;28;20622;-76
2021/01/01 10:31:54;;;;;;;10.43;6.37;;;4.40;99.90;;;;;;5070782;28;20206;-78
2021/01/01 10:34:20;;;;;;;8.13;6.53;;;4.40;99.90;;;;;;5061252;28;20681;-73
2021/01/01 10:36:53;;;;;;;8.37;6.70;;;4.60;99.90;;;;;;5070427;28;20202;-73
2021/01/01 10:39:19;;;;;;;6.60;5.67;;;4.10;99.90;;;;;;5070724;28;20205;-75
2021/01/01 10:41:48;;;;;;;10.50;6.93;;;4.20;99.90;;;;;;5070596;28;20209;-73
2021/01/01 10:44:14;;;;;;;16.57;11.90;;;4.50;99.90;;;;;;5071289;28;20213;-75
2021/01/01 10:46:42;;;;;;;13.33;10.17;;;4.60;99.90;;;;;;5067260;28;20233;-76
2021/01/01 10:49:09;;;;;;;11.43;8.30;;;4.60;99.90;;;;;;5070409;28;20276;-77
2021/01/01 10:51:35;;;;;;;10.93;8.87;;;4.60;99.90;;;;;;5059599;28;20213;-78
2021/01/01 10:54:02;;;;;;;13.87;9.50;;;4.70;99.90;;;;;;5069657;28;20861;-76
2021/01/01 10:56:29;;;;;;;7.63;6.57;;;4.60;99.90;;;;;;5069744;28;20751;-75
2021/01/01 10:58:55;;;;;;;10.10;7.27;;;4.40;99.90;;;;;;5070593;28;20198;-77
2021/01/01 11:01:23;;;;;;;11.00;7.37;;;4.30;99.90;;;;;;5070857;28;20206;-78
2021/01/01 11:03:51;;;;;;;8.90;6.47;;;4.30;99.90;;;;;;5070385;28;20213;-77
2021/01/01 11:06:18;;;;;;;6.67;5.80;;;4.40;99.90;;;;;;5066075;28;20363;-72
2021/01/01 11:08:46;;;;;;;8.53;6.60;;;4.40;99.90;;;;;;5070046;28;20213;-74
2021/01/01 11:11:14;;;;;;;7.40;5.80;;;4.40;99.90;;;;;;5070319;28;20238;-76
2021/01/01 11:13:45;;;;;;;9.37;6.83;;;4.30;99.90;;;;;;5058759;28;20293;-74
2021/01/01 12:20:01;;;;;;;14.03;10.43;;;4.50;99.90;;;;;;5066475;28;20232;-76
2021/01/01 12:22:29;;;;;;;9.23;6.53;;;4.60;99.90;;;;;;5067928;28;20288;-76
2021/01/01 12:24:57;;;;;;;9.97;6.57;;;4.80;99.90;;;;;;5067164;28;20205;-76
2021/01/01 12:27:27;;;;;;;8.63;6.70;;;5.10;99.90;;;;;;5070176;28;20210;-76
2021/01/01 12:29:55;;;;;;;8.00;6.33;;;4.90;99.90;;;;;;5069557;28;20289;-76
2021/01/01 12:32:21;;;;;;;9.87;6.67;;;5.00;99.90;;;;;;5069629;28;20690;-77
2021/01/01 12:34:48;;;;;;;8.70;7.47;;;5.20;99.90;;;;;;5069747;28;20565;-76
2021/01/01 12:37:15;;;;;;;9.23;7.50;;;5.00;99.90;;;;;;5066940;28;20203;-75
2021/01/01 12:39:42;;;;;;;10.90;8.10;;;5.00;99.90;;;;;;5063048;28;20375;-76
2021/01/01 12:42:09;;;;;;;9.97;7.00;;;5.20;99.90;;;;;;5059173;28;20206;-77
2021/01/01 12:44:36;;;;;;;9.00;7.43;;;5.50;99.90;;;;;;5069853;28;20210;-77
2021/01/01 12:47:03;;;;;;;8.37;6.77;;;5.90;99.90;;;;;;5069229;28;20257;-76
2021/01/01 12:49:30;;;;;;;8.43;6.27;;;5.60;99.90;;;;;;5070145;28;20254;-75
2021/01/01 12:51:56;;;;;;;8.30;6.67;;;5.80;99.90;;;;;;5069294;28;21027;-76
2021/01/01 12:54:23;;;;;;;9.97;7.50;;;5.80;99.90;;;;;;5069823;28;20202;-75
2021/01/01 12:56:49;;;;;;;10.07;8.20;;;5.60;99.90;;;;;;5065002;28;20211;-75
2021/01/01 12:59:17;;;;;;;9.83;8.83;;;5.90;99.90;;;;;;5068634;28;20202;-74
2021/01/01 13:01:43;;;;;;;8.80;7.67;;;5.70;99.90;;;;;;5068731;28;20264;-74
2021/01/01 13:04:09;;;;;;;10.93;7.53;;;5.70;99.90;;;;;;5063129;28;20210;-74
2021/01/01 13:06:36;;;;;;;6.47;5.53;;;5.60;99.90;;;;;;5062234;28;20580;-74
2021/01/01 13:09:03;;;;;;;10.53;6.73;;;5.60;99.90;;;;;;5063519;28;20791;-74
2021/01/01 13:11:31;;;;;;;7.50;6.47;;;5.40;99.90;;;;;;5072173;28;20259;-74
2021/01/01 13:13:58;;;;;;;8.77;6.73;;;5.40;99.90;;;;;;5071901;28;20747;-75
2021/01/01 13:16:27;;;;;;;7.47;6.50;;;5.30;99.90;;;;;;5068634;28;20684;-74
2021/01/01 13:18:54;;;;;;;7.77;6.33;;;5.10;99.90;;;;;;5072267;28;20214;-74
2021/01/01 13:21:27;;;;;;;8.30;6.40;;;5.10;99.90;;;;;;5072611;28;20213;-73
2021/01/01 13:23:54;;;;;;;10.33;7.03;;;4.90;99.90;;;;;;5072449;28;20260;-74
2021/01/01 13:26:21;;;;;;;8.50;7.47;;;5.10;99.90;;;;;;5072296;28;20778;-73
2021/01/01 13:28:48;;;;;;;8.23;7.43;;;5.00;99.90;;;;;;5067147;28;20224;-72
2021/01/01 13:31:15;;;;;;;8.73;7.10;;;5.00;99.90;;;;;;5072809;28;20210;-73
2021/01/01 13:33:43;;;;;;;8.87;7.47;;;4.90;99.90;;;;;;5073119;28;20209;-73
2021/01/01 13:36:14;;;;;;;9.60;7.27;;;4.90;99.90;;;;;;5072635;28;20306;-72
2021/01/01 13:38:40;;;;;;;12.77;10.00;;;5.00;99.90;;;;;;5072618;28;20202;-73
2021/01/01 13:41:10;;;;;;;9.63;7.73;;;5.20;99.90;;;;;;5071665;28;20600;-73
2021/01/01 13:43:38;;;;;;;11.80;8.30;;;4.80;99.90;;;;;;5069041;28;20210;-75
2021/01/01 13:46:05;;;;;;;8.13;6.53;;;4.60;99.90;;;;;;5069417;28;20240;-73
2021/01/01 13:48:32;;;;;;;9.93;8.13;;;4.60;99.90;;;;;;5066435;28;20207;-73
2021/01/01 13:50:59;;;;;;;11.77;8.30;;;4.80;99.90;;;;;;5067059;28;20202;-74
2021/01/01 13:53:26;;;;;;;9.83;7.97;;;4.60;99.90;;;;;;5067425;28;20210;-74
2021/01/01 13:55:52;;;;;;;11.13;7.83;;;4.60;99.90;;;;;;5070238;28;20336;-74
2021/01/01 13:58:19;;;;;;;10.10;8.47;;;4.70;99.90;;;;;;5069044;28;20621;-75
2021/01/01 14:00:46;;;;;;;16.30;8.53;;;4.70;99.90;;;;;;5071910;28;20202;-72
2021/01/01 14:03:12;;;;;;;10.50;7.93;;;4.70;99.90;;;;;;5071476;28;20243;-75